Time;durP1;ratioP1;P1;durP2;ratioP2;P2;SDS_P1;SDS_P2;PMS_P1;PMS_P2;Temp;Humidity;BMP_temperature;BMP_pressure;BME280_temperature;BME280_humidity;BME280_pressure;Samples;Min_cycle;Max_cycle;Signal;HPM_P1;HPM_P2
2024/02/08 00:00:43;;;;;;;3.80;1.80;;;;;;;2.61;91.16;97991.14;105938;1254;72678;-75
2024/02/08 00:03:13;;;;;;;2.40;1.90;;;;;;;2.64;91.49;97995.57;105771;1256;60991;-75
2024/02/08 00:05:40;;;;;;;2.90;1.90;;;;;;;2.66;90.86;97997.92;105903;1254;60673;-75
2024/02/08 00:08:07;;;;;;;3.10;2.40;;;;;;;2.66;91.27;98002.16;105961;1259;74009;-74
2024/02/08 00:10:34;;;;;;;3.30;2.50;;;;;;;2.66;91.42;98005.21;105904;1257;67744;-75
2024/02/08 00:13:00;;;;;;;4.40;2.80;;;;;;;2.71;91.42;98004.63;105923;1254;72477;-74
2024/02/08 00:15:29;;;;;;;3.90;2.30;;;;;;;2.72;91.08;98011.98;105997;1257;60463;-74
2024/02/08 00:17:58;;;;;;;2.60;2.00;;;;;;;2.66;91.63;98018.05;106009;1255;60565;-75
2024/02/08 00:20:25;;;;;;;2.00;1.50;;;;;;;2.65;91.76;98028.71;106900;1254;74184;-75
2024/02/08 00:22:52;;;;;;;3.10;2.10;;;;;;;2.68;91.72;98031.53;108446;1254;67979;-76
2024/02/08 00:25:19;;;;;;;3.00;2.20;;;;;;;2.69;91.63;98040.29;108165;1257;71062;-76
2024/02/08 00:27:48;;;;;;;3.20;2.30;;;;;;;2.70;91.74;98039.89;106050;1256;61747;-75
2024/02/08 00:30:18;;;;;;;2.70;2.10;;;;;;;2.73;91.78;98045.52;106000;1253;60371;-75
2024/02/08 00:32:46;;;;;;;4.70;2.50;;;;;;;2.69;91.96;98045.20;105950;1256;73714;-74
2024/02/08 00:35:19;;;;;;;3.70;2.10;;;;;;;2.66;92.44;98052.52;105832;1259;70134;-74
2024/02/08 00:37:49;;;;;;;;;;;;;;;2.68;92.06;98057.71;105705;1260;71592;-74
2024/02/08 00:40:17;;;;;;;2.60;2.00;;;;;;;2.66;91.63;98054.23;105610;1257;60559;-74
2024/02/08 00:42:46;;;;;;;2.30;2.10;;;;;;;2.59;91.96;98056.19;105783;1257;60617;-75
2024/02/08 00:45:15;;;;;;;2.50;1.90;;;;;;;2.58;92.60;98065.39;105926;1259;73846;-74
2024/02/08 00:47:42;;;;;;;4.50;2.60;;;;;;;2.62;92.56;98071.98;105953;1258;68994;-74
2024/02/08 00:50:08;;;;;;;2.90;1.90;;;;;;;2.64;92.86;98077.89;105951;1257;71513;-76
2024/02/08 00:52:35;;;;;;;3.60;2.20;;;;;;;2.66;93.12;98079.58;105828;1259;60662;-75
2024/02/08 00:55:02;;;;;;;2.90;2.40;;;;;;;2.63;93.20;98086.35;105893;1257;60438;-75
2024/02/08 00:57:32;;;;;;;3.40;2.20;;;;;;;2.67;93.06;98089.67;105987;1256;75123;-74
2024/02/08 00:59:59;;;;;;;4.00;2.30;;;;;;;2.68;92.91;98087.11;106051;1257;70252;-74
2024/02/08 01:02:29;;;;;;;3.20;2.50;;;;;;;2.61;92.69;98089.91;105944;1266;72643;-74
2024/02/08 01:04:56;;;;;;;2.00;1.50;;;;;;;2.55;93.03;98088.61;105829;1254;61177;-75
2024/02/08 01:07:23;;;;;;;4.30;1.80;;;;;;;2.57;92.91;98088.78;105941;1254;60478;-74
2024/02/08 01:09:50;;;;;;;2.00;1.60;;;;;;;2.59;92.98;98088.35;106118;1257;73850;-74
2024/02/08 01:12:19;;;;;;;2.30;1.80;;;;;;;2.58;93.14;98090.55;106024;1254;70357;-74
2024/02/08 01:14:48;;;;;;;1.70;1.40;;;;;;;2.53;93.30;98099.09;105877;1257;72996;-75
2024/02/08 01:17:16;;;;;;;2.10;1.60;;;;;;;2.56;93.00;98097.41;105899;1260;60931;-74
2024/02/08 01:19:42;;;;;;;4.20;2.10;;;;;;;2.57;93.18;98097.98;106206;1260;60440;-76
2024/02/08 01:22:09;;;;;;;3.20;1.80;;;;;;;2.57;92.69;98104.30;107941;1257;73679;-74
2024/02/08 01:24:35;;;;;;;3.60;2.10;;;;;;;2.53;93.20;98102.36;108341;1256;68722;-74
2024/02/08 01:27:04;;;;;;;1.80;1.40;;;;;;;2.57;93.01;98112.15;106712;1257;71155;-74
2024/02/08 01:29:31;;;;;;;1.50;1.30;;;;;;;2.55;92.91;98111.95;106020;1254;60456;-75
2024/02/08 01:32:00;;;;;;;2.50;1.60;;;;;;;2.49;93.14;98108.77;105861;1259;60432;-74
2024/02/08 01:34:28;;;;;;;1.90;1.60;;;;;;;2.45;93.25;98114.08;105944;1257;73981;-76
2024/02/08 01:36:55;;;;;;;1.80;1.30;;;;;;;2.47;93.16;98112.79;105869;1256;69221;-76
2024/02/08 01:39:24;;;;;;;1.90;1.50;;;;;;;2.48;92.86;98107.85;105982;1254;72471;-74
2024/02/08 01:41:52;;;;;;;2.20;1.60;;;;;;;2.40;92.48;98104.06;106117;1256;60463;-74
2024/02/08 01:44:21;;;;;;;1.80;1.30;;;;;;;2.38;93.05;98117.45;105902;1255;60415;-73
2024/02/08 01:46:48;;;;;;;2.60;1.40;;;;;;;2.40;92.61;98129.49;105867;1257;71848;-76
2024/02/08 01:49:26;;;;;;;1.80;1.30;;;;;;;2.38;92.36;98124.08;105836;1254;70016;-75
2024/02/08 01:52:03;;;;;;;2.10;1.20;;;;;;;2.31;92.32;98126.63;105971;1257;70874;-76
2024/02/08 01:54:30;;;;;;;2.40;1.00;;;;;;;2.31;92.13;98134.55;106020;1257;61399;-74
2024/02/08 01:56:58;;;;;;;1.50;1.00;;;;;;;2.32;92.33;98135.13;106028;1254;60470;-75
2024/02/08 01:59:31;;;;;;;1.90;1.20;;;;;;;2.31;92.31;98139.41;105840;1254;73675;-75
2024/02/08 02:02:01;;;;;;;1.80;1.00;;;;;;;2.32;92.21;98143.73;106058;1259;70419;-75
2024/02/08 02:04:30;;;;;;;1.40;1.00;;;;;;;2.35;92.04;98145.77;106090;1260;72836;-76
2024/02/08 02:07:00;;;;;;;2.40;1.40;;;;;;;2.31;92.23;98149.88;106112;1253;60567;-74
2024/02/08 02:09:30;;;;;;;1.80;1.40;;;;;;;2.28;92.33;98150.19;106117;1256;60509;-75
2024/02/08 02:12:10;;;;;;;1.30;1.10;;;;;;;2.31;92.22;98154.11;106043;1258;73695;-75
2024/02/08 02:14:38;;;;;;;2.20;1.30;;;;;;;2.33;92.19;98155.11;106064;1259;70147;-73
2024/02/08 02:17:16;;;;;;;2.70;1.40;;;;;;;2.27;92.10;98155.89;106387;1257;72587;-74
2024/02/08 02:19:43;;;;;;;1.50;1.20;;;;;;;2.22;92.62;98149.62;107236;1254;60320;-74
2024/02/08 02:22:10;;;;;;;2.00;1.10;;;;;;;2.26;92.62;98150.92;106959;1255;60780;-73
2024/02/08 02:24:37;;;;;;;2.20;1.30;;;;;;;2.29;92.28;98149.91;107359;1254;73724;-73
2024/02/08 02:27:04;;;;;;;1.80;1.20;;;;;;;2.26;92.48;98153.00;107034;1254;70192;-75
2024/02/08 02:29:32;;;;;;;1.30;1.10;;;;;;;2.22;92.29;98144.16;107116;1257;72506;-74
2024/02/08 02:31:59;;;;;;;1.90;1.10;;;;;;;2.24;92.29;98153.20;106776;1256;62013;-73
2024/02/08 02:34:30;;;;;;;1.40;1.10;;;;;;;2.26;92.32;98160.23;106440;1254;60379;-74
2024/02/08 02:36:58;;;;;;;3.60;1.40;;;;;;;2.21;92.47;98160.36;106262;1254;72628;-74
2024/02/08 02:39:26;;;;;;;1.90;1.20;;;;;;;2.20;92.72;98166.54;106277;1255;70453;-75
2024/02/08 02:41:56;;;;;;;1.40;1.20;;;;;;;2.23;92.60;98168.51;106297;1257;72484;-74
2024/02/08 02:44:23;;;;;;;1.60;1.30;;;;;;;2.23;92.58;98184.73;105903;1254;60744;-75
2024/02/08 02:46:49;;;;;;;3.10;1.40;;;;;;;2.25;92.43;98192.42;105887;1254;60486;-73
2024/02/08 02:49:21;;;;;;;1.60;1.30;;;;;;;2.22;92.48;98194.00;105951;1259;73938;-74
2024/02/08 02:51:48;;;;;;;1.40;1.10;;;;;;;2.21;92.59;98197.89;105990;1254;70450;-74
2024/02/08 02:54:16;;;;;;;1.80;1.20;;;;;;;2.24;92.50;98199.03;105742;1255;72780;-75
2024/02/08 02:56:50;;;;;;;2.90;1.30;;;;;;;2.25;92.60;98201.00;105993;1254;60610;-77
2024/02/08 02:59:17;;;;;;;1.80;1.40;;;;;;;2.24;92.87;98202.66;105907;1256;60438;-75
2024/02/08 03:01:49;;;;;;;2.30;1.40;;;;;;;2.28;93.03;98199.98;105869;1254;73919;-75
2024/02/08 03:04:16;;;;;;;2.10;1.50;;;;;;;2.32;92.41;98201.75;105799;1254;70171;-72
2024/02/08 03:06:45;;;;;;;2.30;1.30;;;;;;;2.28;92.40;98202.96;105730;1253;72478;-76
2024/02/08 03:09:15;;;;;;;1.70;1.20;;;;;;;2.29;92.42;98211.44;106116;1254;60523;-75
2024/02/08 03:11:43;;;;;;;2.30;1.50;;;;;;;2.32;92.58;98211.71;105689;1257;60467;-72
2024/02/08 03:14:10;;;;;;;2.10;1.60;;;;;;;2.29;92.75;98212.16;105819;1255;73738;-76
2024/02/08 03:16:37;;;;;;;2.70;1.20;;;;;;;2.27;92.46;98220.58;105920;1256;70298;-75
2024/02/08 03:19:07;;;;;;;2.30;1.30;;;;;;;2.29;92.47;98223.53;106010;1255;72652;-74
2024/02/08 03:21:39;;;;;;;2.10;1.50;;;;;;;2.28;92.61;98225.30;106167;1254;60941;-74
2024/02/08 03:24:08;;;;;;;2.30;1.40;;;;;;;2.25;92.78;98226.46;106891;1253;60533;-75
2024/02/08 03:26:49;;;;;;;1.80;1.20;;;;;;;2.28;92.44;98235.30;108801;1253;212313;-76
2024/02/08 03:30:39;;;;;;;3.40;1.60;;;;;;;2.31;92.34;98242.15;102724;1292;600583;-76
2024/02/08 03:33:15;;;;;;;2.20;1.40;;;;;;;2.22;92.26;98248.87;105131;1270;60789;-73
2024/02/08 03:35:53;;;;;;;2.00;1.40;;;;;;;2.20;92.29;98251.97;104724;1266;59314;-74
2024/02/08 03:38:21;;;;;;;2.70;1.40;;;;;;;2.20;91.83;98256.05;105001;1266;70998;-76
2024/02/08 03:40:49;;;;;;;2.20;1.30;;;;;;;2.19;92.12;98262.59;105027;1266;72406;-75
2024/02/08 03:43:17;;;;;;;2.20;1.80;;;;;;;2.13;92.32;98263.08;104986;1269;155584;-75
2024/02/08 03:45:46;;;;;;;2.80;1.70;;;;;;;2.13;92.54;98264.71;107540;1266;61724;-76
2024/02/08 03:48:15;;;;;;;5.50;2.90;;;;;;;2.19;92.34;98269.71;107668;1264;59330;-74
2024/02/08 03:50:44;;;;;;;3.90;2.00;;;;;;;2.22;92.04;98275.70;105676;1264;71131;-74
2024/02/08 03:53:13;;;;;;;2.90;1.70;;;;;;;2.21;92.39;98279.64;105049;1266;69720;-75
2024/02/08 03:55:44;;;;;;;3.10;1.50;;;;;;;2.23;91.95;98281.92;105067;1266;72692;-76
2024/02/08 03:58:14;;;;;;;3.70;1.80;;;;;;;2.24;92.21;98282.83;105702;1257;59724;-75
2024/02/08 04:00:43;;;;;;;3.20;2.10;;;;;;;2.21;92.13;98286.85;105837;1253;60104;-74
2024/02/08 04:03:14;;;;;;;3.80;1.80;;;;;;;2.19;91.80;98283.23;105912;1258;71814;-75
2024/02/08 04:05:58;;;;;;;4.10;2.20;;;;;;;2.21;91.84;98280.86;106027;1259;69419;-74
2024/02/08 04:54:57;;;;;;;6.00;3.10;;;;;;;1.55;91.40;98325.10;106371;1253;59657;-73
2024/02/08 04:57:25;;;;;;;5.00;2.40;;;;;;;1.50;91.21;98337.84;106459;1258;72983;-74
2024/02/08 04:59:53;;;;;;;5.10;2.50;;;;;;;1.50;91.11;98342.30;106521;1259;68775;-75
2024/02/08 05:02:22;;;;;;;4.60;2.60;;;;;;;1.51;91.29;98341.94;105990;1258;71477;-75
2024/02/08 05:04:49;;;;;;;5.40;2.60;;;;;;;1.47;91.65;98346.10;105707;1253;59720;-75
2024/02/08 05:07:18;;;;;;;5.00;2.80;;;;;;;1.44;91.85;98354.05;105777;1258;59543;-75
2024/02/08 05:09:45;;;;;;;6.90;3.10;;;;;;;1.49;91.94;98360.42;105809;1253;71974;-74
2024/02/08 05:12:13;;;;;;;5.90;2.90;;;;;;;1.52;92.05;98358.67;106094;1257;68850;-73
2024/02/08 05:14:40;;;;;;;5.30;2.90;;;;;;;1.51;92.10;98367.71;106140;1253;71050;-74
2024/02/08 05:17:09;;;;;;;4.60;2.30;;;;;;;1.47;92.18;98370.20;105987;1256;61984;-72
2024/02/08 05:19:43;;;;;;;3.50;2.10;;;;;;;1.51;91.91;98377.16;105507;1258;59597;-74
2024/02/08 05:22:13;;;;;;;4.30;2.30;;;;;;;1.53;91.70;98382.49;105990;1261;73020;-74
2024/02/08 05:24:41;;;;;;;4.50;2.60;;;;;;;1.50;91.93;98391.20;106758;1253;69037;-76
2024/02/08 05:27:11;;;;;;;3.50;2.60;;;;;;;1.51;92.03;98397.52;107642;1254;74782;-75
2024/02/08 05:29:41;;;;;;;4.00;2.10;;;;;;;1.61;91.97;98399.41;107554;1256;61688;-75
2024/02/08 05:32:09;;;;;;;3.00;1.90;;;;;;;1.70;91.30;98402.23;105893;1253;60024;-76
2024/02/08 05:34:39;;;;;;;6.10;2.60;;;;;;;1.64;90.94;98409.92;106031;1253;73016;-75
2024/02/08 05:37:07;;;;;;;4.50;2.90;;;;;;;1.58;91.11;98414.55;105812;1253;69151;-76
2024/02/08 05:39:36;;;;;;;3.70;2.60;;;;;;;1.60;90.90;98414.13;105708;1258;71101;-76
2024/02/08 05:42:05;;;;;;;5.50;2.40;;;;;;;1.62;90.91;98422.55;105803;1258;59773;-75
2024/02/08 05:44:40;;;;;;;5.30;2.60;;;;;;;1.56;91.18;98428.80;105824;1257;60015;-75
2024/02/08 05:47:08;;;;;;;4.00;2.10;;;;;;;1.50;91.16;98429.17;105738;1259;75572;-75
2024/02/08 05:49:48;;;;;;;4.90;3.00;;;;;;;1.52;90.90;98433.55;105636;1253;69400;-75
2024/02/08 05:52:17;;;;;;;7.60;3.00;;;;;;;1.51;90.72;98433.15;105837;1258;71485;-75
2024/02/08 05:54:45;;;;;;;5.90;3.10;;;;;;;1.43;90.86;98432.45;105995;1253;59722;-74
2024/02/08 05:57:14;;;;;;;5.00;3.10;;;;;;;1.33;91.06;98428.13;105801;1258;59720;-74
2024/02/08 05:59:44;;;;;;;4.60;2.90;;;;;;;1.34;91.19;98434.87;105811;1258;73071;-76
2024/02/08 06:02:22;;;;;;;3.90;2.90;;;;;;;1.35;91.21;98436.74;105923;1255;68807;-80
2024/02/08 06:04:59;;;;;;;4.20;2.60;;;;;;;1.28;91.70;98444.49;107886;1257;72498;-80
2024/02/08 06:07:30;;;;;;;5.90;3.40;;;;;;;1.26;91.69;98451.30;106150;1253;60742;-79
2024/02/08 06:10:22;;;;;;;3.00;2.00;;;;;;;1.32;91.52;98456.83;105981;1253;59605;-80
2024/02/08 06:13:12;;;;;;;2.90;1.70;;;;;;;1.38;91.38;98461.88;105876;1252;73076;-83
2024/02/08 06:15:43;;;;;;;3.50;2.10;;;;;;;1.35;91.70;98460.95;106290;1253;69169;-80
2024/02/08 06:18:19;;;;;;;2.90;1.50;;;;;;;1.39;92.00;98462.98;105929;1260;72785;-80
2024/02/08 06:20:59;;;;;;;3.60;1.60;;;;;;;1.47;91.56;98469.25;106171;1259;59626;-79
2024/02/08 06:23:27;;;;;;;3.40;2.20;;;;;;;1.48;91.45;98469.39;106242;1258;59533;-78
2024/02/08 06:28:52;;;;;;;3.40;1.80;;;;;;;1.50;91.23;98474.95;107498;1257;69006;-77
2024/02/08 06:31:29;;;;;;;3.50;2.00;;;;;;;1.54;90.84;98479.23;107022;1255;73019;-76
2024/02/08 06:34:27;;;;;;;2.80;1.80;;;;;;;1.51;90.87;98487.07;106724;1254;59693;-76
2024/02/08 06:37:15;;;;;;;4.30;2.50;;;;;;;1.49;90.81;98494.20;106468;1253;59539;-77
2024/02/08 06:39:52;;;;;;;3.70;2.40;;;;;;;1.59;90.86;98497.88;106313;1253;72319;-77
2024/02/08 06:42:40;;;;;;;2.90;2.00;;;;;;;1.63;90.54;98499.19;106382;1258;70996;-78
2024/02/08 07:37:38;;;;;;;5.80;4.10;;;;;;;1.91;89.65;98573.98;105942;1254;69027;-77
2024/02/08 07:40:51;;;;;;;6.30;4.10;;;;;;;1.90;89.91;98576.36;105848;1258;72647;-77
2024/02/08 07:45:42;;;;;;;5.40;3.70;;;;;;;2.01;89.62;98588.27;106306;1256;59608;-77
2024/02/08 07:48:13;;;;;;;5.90;4.20;;;;;;;1.99;88.83;98595.73;106193;1253;71638;-78
2024/02/08 07:50:47;;;;;;;4.90;3.80;;;;;;;1.88;88.44;98594.51;106012;1258;68725;-77
2024/02/08 07:53:35;;;;;;;5.50;3.60;;;;;;;1.87;88.74;98599.65;105967;1259;73051;-77
2024/02/08 07:58:56;;;;;;;6.60;3.50;;;;;;;2.00;88.82;98602.84;105883;1253;60465;-76
2024/02/08 08:01:32;;;;;;;3.30;2.70;;;;;;;1.99;87.85;98604.70;106383;1253;73832;-79
2024/02/08 08:04:00;;;;;;;4.60;3.30;;;;;;;2.05;87.24;98607.09;106329;1259;71328;-78
2024/02/08 08:06:34;;;;;;;4.50;3.00;;;;;;;2.16;87.02;98609.61;106022;1258;72673;-77
2024/02/08 08:09:18;;;;;;;3.90;2.80;;;;;;;2.22;87.82;98613.60;105868;1255;62463;-76
2024/02/08 08:11:57;;;;;;;2.80;2.30;;;;;;;2.29;86.86;98616.21;105919;1258;60361;-77
2024/02/08 08:17:08;;;;;;;4.60;2.70;;;;;;;2.40;85.26;98621.87;107289;1259;68989;-77
2024/02/08 08:19:41;;;;;;;4.90;2.50;;;;;;;2.35;83.90;98625.41;105938;1261;71498;-77
2024/02/08 08:27:50;;;;;;;5.00;2.80;;;;;;;2.50;84.31;98634.33;106580;1254;72625;-78
2024/02/08 08:30:28;;;;;;;4.70;3.20;;;;;;;2.49;82.73;98641.84;108462;1254;68865;-78
2024/02/08 08:35:49;;;;;;;5.20;3.00;;;;;;;2.42;80.83;98650.30;106453;1258;60526;-78
2024/02/08 08:40:48;;;;;;;3.70;2.80;;;;;;;2.35;80.29;98649.55;106490;1262;72759;-80
2024/02/08 08:43:19;;;;;;;4.70;2.90;;;;;;;2.43;80.86;98657.95;106080;1260;69936;-80
2024/02/08 08:45:59;;;;;;;3.30;2.20;;;;;;;2.63;80.14;98660.77;106000;1254;74933;-77
2024/02/08 08:48:31;;;;;;;4.60;2.70;;;;;;;2.79;79.23;98653.34;106167;1260;61047;-81
2024/02/08 08:51:10;;;;;;;3.70;2.50;;;;;;;2.80;77.77;98658.86;106412;1256;60475;-79
2024/02/08 08:53:56;;;;;;;5.60;3.50;;;;;;;2.78;77.65;98663.23;106367;1254;73310;-81
2024/02/08 08:56:28;;;;;;;6.60;3.70;;;;;;;2.91;77.26;98665.10;106401;1258;70422;-80
2024/02/08 08:58:58;;;;;;;6.10;3.50;;;;;;;2.94;75.91;98666.94;105867;1265;74753;-76
2024/02/08 09:01:27;;;;;;;5.00;2.80;;;;;;;2.89;75.56;98677.95;106020;1259;61316;-76
2024/02/08 09:04:25;;;;;;;4.00;2.70;;;;;;;2.87;74.97;98679.15;105997;1254;60481;-76
2024/02/08 09:06:54;;;;;;;5.70;1.90;;;;;;;2.89;74.64;98676.52;105885;1253;73027;-74
2024/02/08 09:09:28;;;;;;;4.70;2.60;;;;;;;2.82;75.06;98682.95;105647;1259;69425;-75
2024/02/08 09:11:59;;;;;;;5.40;3.20;;;;;;;2.80;75.30;98680.07;105665;1258;74623;-77
2024/02/08 09:14:40;;;;;;;3.60;2.40;;;;;;;2.78;75.22;98681.40;105712;1257;60616;-77
2024/02/08 09:17:08;;;;;;;3.40;2.20;;;;;;;2.98;76.07;98683.36;105768;1259;60491;-77
2024/02/08 09:19:51;;;;;;;;;;;;;;;3.18;76.40;98689.52;105567;1259;73247;-77
2024/02/08 09:22:19;;;;;;;4.00;1.90;;;;;;;3.33;74.93;98685.48;105839;1259;70696;-77
2024/02/08 09:24:48;;;;;;;3.00;2.00;;;;;;;3.43;72.68;98685.59;106065;1259;72923;-77
2024/02/08 09:27:34;;;;;;;4.00;2.40;;;;;;;3.39;72.91;98680.91;107204;1254;62644;-77
2024/02/08 09:30:39;;;;;;;2.80;2.10;;;;;;;3.55;74.17;98678.09;108876;1253;59167;-77
2024/02/08 09:33:20;;;;;;;3.90;2.30;;;;;;;3.91;73.22;98670.70;106079;1254;74176;-76
2024/02/08 09:35:54;;;;;;;3.40;2.30;;;;;;;4.31;70.87;98673.20;106232;1255;70522;-78
2024/02/08 09:38:22;;;;;;;2.20;1.90;;;;;;;4.44;69.61;98674.91;106427;1255;72745;-76
2024/02/08 09:40:51;;;;;;;3.10;2.10;;;;;;;4.48;69.13;98677.61;105971;1254;61361;-77
2024/02/08 09:43:19;;;;;;;2.50;1.70;;;;;;;4.45;68.33;98674.25;105671;1253;60455;-77
2024/02/08 09:46:05;;;;;;;2.60;2.00;;;;;;;4.42;68.11;98677.73;105972;1255;76173;-76
2024/02/08 09:48:51;;;;;;;3.20;2.00;;;;;;;4.40;67.31;98679.86;106176;1260;70062;-80
2024/02/08 09:51:26;;;;;;;4.00;2.10;;;;;;;4.30;68.77;98683.89;105924;1254;75259;-78
2024/02/08 09:53:54;;;;;;;3.90;2.10;;;;;;;4.22;68.35;98684.31;105816;1254;62297;-79
2024/02/08 09:56:25;;;;;;;2.00;1.70;;;;;;;4.08;67.28;98687.59;107087;1254;60575;-81
2024/02/08 09:58:58;;;;;;;3.20;1.80;;;;;;;3.89;66.96;98692.16;106980;1255;72402;-83
2024/02/08 10:01:43;;;;;;;2.40;1.80;;;;;;;3.68;67.34;98697.33;106143;1257;67948;-81
2024/02/08 10:04:19;;;;;;;2.10;1.70;;;;;;;3.66;68.33;98699.83;106010;1261;72917;-80
2024/02/08 10:12:07;;;;;;;3.30;2.10;;;;;;;3.34;67.83;98713.50;106114;1260;74231;-79
2024/02/08 10:14:42;;;;;;;3.20;2.00;;;;;;;3.14;68.09;98710.87;107056;1259;70470;-80
2024/02/08 10:17:28;;;;;;;3.00;2.30;;;;;;;3.03;68.61;98714.89;105993;1254;72836;-81
2024/02/08 10:22:42;;;;;;;3.00;2.20;;;;;;;3.04;68.62;98718.32;106541;1253;60442;-82
2024/02/08 10:27:57;;;;;;;4.60;2.80;;;;;;;3.02;69.17;98717.85;109271;1257;68948;-82
2024/02/08 10:30:25;;;;;;;2.90;1.50;;;;;;;3.07;68.73;98720.52;107227;1257;73562;-79
2024/02/08 10:32:53;;;;;;;2.40;1.50;;;;;;;3.11;68.43;98721.66;106294;1260;60542;-78
2024/02/08 10:35:26;;;;;;;3.20;1.50;;;;;;;3.29;68.73;98725.08;106089;1259;61449;-80
2024/02/08 10:37:55;;;;;;;2.20;1.60;;;;;;;3.56;68.85;98719.45;105940;1259;72642;-78
2024/02/08 10:40:29;;;;;;;5.10;2.50;;;;;;;3.68;68.26;98720.92;105825;1259;69241;-78
2024/02/08 10:42:58;;;;;;;3.70;2.70;;;;;;;3.72;67.41;98721.02;105921;1254;74920;-77
2024/02/08 10:45:32;;;;;;;2.30;1.80;;;;;;;3.68;66.84;98723.90;105989;1254;60611;-78
2024/02/08 10:48:00;;;;;;;7.00;2.80;;;;;;;3.57;66.15;98727.22;106701;1253;60353;-77
2024/02/08 10:50:28;;;;;;;2.90;2.30;;;;;;;3.50;66.67;98722.90;105778;1261;76100;-78
2024/02/08 10:53:00;;;;;;;3.40;2.10;;;;;;;3.49;66.49;98726.06;107267;1259;70661;-78
2024/02/08 10:55:36;;;;;;;2.70;1.90;;;;;;;3.55;65.80;98732.42;107980;1254;71622;-78
2024/02/08 11:03:14;;;;;;;3.10;2.50;;;;;;;5.06;65.93;98723.14;106065;1259;73660;-79
2024/02/08 11:08:33;;;;;;;3.70;2.70;;;;;;;6.14;64.16;98727.68;105871;1255;74592;-78
2024/02/08 11:11:09;;;;;;;2.90;2.50;;;;;;;6.69;61.77;98720.75;105736;1255;61158;-76
2024/02/08 11:13:41;;;;;;;2.80;2.40;;;;;;;6.80;60.52;98718.09;105845;1259;61039;-76
2024/02/08 11:16:19;;;;;;;3.60;2.20;;;;;;;6.63;57.96;98721.05;105926;1253;72845;-77
2024/02/08 11:18:51;;;;;;;2.90;1.90;;;;;;;6.20;57.91;98725.15;106249;1254;70848;-76
2024/02/08 11:21:24;;;;;;;2.40;1.80;;;;;;;5.70;58.31;98729.15;107307;1253;75078;-77
2024/02/08 11:23:53;;;;;;;3.30;2.30;;;;;;;5.33;59.60;98730.91;108448;1253;60291;-76
2024/02/08 11:26:25;;;;;;;3.10;2.10;;;;;;;5.15;60.40;98724.73;108186;1255;59542;-77
2024/02/08 11:29:18;;;;;;;4.20;3.20;;;;;;;5.06;59.91;98728.80;106498;1260;76195;-77
2024/02/08 11:31:48;;;;;;;5.90;3.50;;;;;;;4.94;60.59;98730.33;106037;1254;70675;-76
2024/02/08 11:34:24;;;;;;;4.10;2.10;;;;;;;4.81;59.94;98729.86;105844;1254;73663;-76
2024/02/08 11:36:52;;;;;;;3.70;2.40;;;;;;;4.53;59.27;98729.98;106127;1256;60839;-78
2024/02/08 11:39:28;;;;;;;2.30;1.90;;;;;;;4.26;60.17;98725.73;106051;1254;60495;-77
2024/02/08 11:41:59;;;;;;;4.10;2.20;;;;;;;4.22;60.48;98727.10;107165;1260;74179;-77
2024/02/08 11:44:28;;;;;;;3.20;2.00;;;;;;;4.22;60.28;98725.48;106057;1254;72265;-79
2024/02/08 11:46:59;;;;;;;2.40;1.80;;;;;;;4.11;59.95;98718.00;106213;1254;74939;-79
2024/02/08 11:49:32;;;;;;;2.70;2.10;;;;;;;3.91;60.26;98722.17;105715;1254;59714;-78
2024/02/08 11:52:11;;;;;;;3.30;1.70;;;;;;;3.77;60.69;98717.61;105885;1254;60762;-76
2024/02/08 11:54:39;;;;;;;2.60;1.90;;;;;;;3.74;60.42;98719.45;106039;1255;74114;-76
2024/02/08 11:57:09;;;;;;;2.70;1.90;;;;;;;3.88;61.41;98719.71;105692;1261;69369;-76
2024/02/08 11:59:44;;;;;;;3.40;2.60;;;;;;;4.10;62.14;98718.95;105773;1260;74628;-76
2024/02/08 12:02:16;;;;;;;6.30;3.90;;;;;;;4.27;62.35;98719.26;106151;1254;60513;-75
2024/02/08 12:04:45;;;;;;;6.00;4.90;;;;;;;4.39;60.98;98726.46;106023;1255;60527;-76
2024/02/08 12:07:20;;;;;;;5.10;4.50;;;;;;;4.36;60.57;98723.36;105949;1254;71856;-76
2024/02/08 12:09:59;;;;;;;4.10;3.50;;;;;;;4.25;60.73;98721.64;105804;1261;68684;-76
2024/02/08 12:12:30;;;;;;;4.70;3.10;;;;;;;4.24;61.26;98725.50;105638;1254;73235;-76
2024/02/08 12:14:58;;;;;;;5.20;3.00;;;;;;;4.29;61.60;98728.14;105794;1257;60537;-75
2024/02/08 12:17:25;;;;;;;5.00;4.20;;;;;;;4.37;61.12;98722.02;106001;1254;60410;-76
2024/02/08 12:19:59;;;;;;;7.50;5.70;;;;;;;4.42;60.80;98723.03;106581;1254;76412;-77
2024/02/08 12:22:29;;;;;;;6.90;4.40;;;;;;;4.44;61.29;98722.95;107840;1255;71218;-77
2024/02/08 12:24:59;;;;;;;6.50;3.30;;;;;;;4.56;61.78;98724.52;108295;1254;71452;-76
2024/02/08 12:27:28;;;;;;;5.60;3.00;;;;;;;4.75;60.72;98728.98;107527;1254;60472;-78
2024/02/08 12:29:56;;;;;;;4.50;2.90;;;;;;;4.94;60.29;98724.77;106276;1253;62249;-78
2024/02/08 12:32:28;;;;;;;6.50;4.00;;;;;;;4.97;59.79;98722.88;106373;1254;74896;-77
2024/02/08 12:35:12;;;;;;;8.30;4.90;;;;;;;4.91;59.04;98723.11;106388;1258;69837;-76
2024/02/08 12:37:42;;;;;;;11.80;8.40;;;;;;;4.78;59.07;98727.05;106093;1259;74790;-76
2024/02/08 12:40:13;;;;;;;5.20;3.60;;;;;;;4.64;59.47;98730.95;105987;1258;60628;-76
2024/02/08 12:42:41;;;;;;;2.60;2.20;;;;;;;4.59;59.96;98728.86;105721;1254;60417;-76
2024/02/08 12:45:12;;;;;;;3.30;2.80;;;;;;;4.59;59.59;98731.09;106049;1254;73036;-76
2024/02/08 12:47:39;;;;;;;5.60;3.00;;;;;;;4.59;59.78;98736.52;105829;1254;72430;-76
2024/02/08 12:50:11;;;;;;;5.90;3.70;;;;;;;4.61;59.55;98739.45;106040;1254;72921;-77
2024/02/08 12:52:55;;;;;;;4.10;2.90;;;;;;;4.59;59.36;98742.48;106065;1254;60647;-76
2024/02/08 12:55:23;;;;;;;3.70;2.90;;;;;;;4.50;58.43;98737.82;105765;1261;62341;-77
2024/02/08 12:58:13;;;;;;;4.70;3.60;;;;;;;4.39;58.86;98739.74;106114;1259;74021;-77
2024/02/08 13:00:45;;;;;;;4.50;3.10;;;;;;;4.39;59.42;98737.61;105914;1257;70025;-77
2024/02/08 13:03:15;;;;;;;6.40;3.20;;;;;;;4.40;59.12;98745.79;105882;1254;71571;-79
2024/02/08 13:05:44;;;;;;;3.30;2.60;;;;;;;4.34;59.35;98744.25;106041;1254;60457;-77
2024/02/08 13:08:17;;;;;;;3.40;2.30;;;;;;;4.27;59.23;98747.81;106114;1254;62285;-79
2024/02/08 13:10:54;;;;;;;4.00;3.20;;;;;;;4.17;59.72;98752.27;106113;1259;74196;-79
2024/02/08 13:13:24;;;;;;;5.00;3.10;;;;;;;4.09;60.30;98747.98;106035;1254;70533;-78
2024/02/08 13:15:58;;;;;;;5.60;3.30;;;;;;;3.96;59.24;98747.71;106132;1254;73693;-77
2024/02/08 13:18:30;;;;;;;3.60;2.40;;;;;;;3.72;59.88;98754.39;106321;1254;60588;-78
2024/02/08 13:20:58;;;;;;;4.80;3.20;;;;;;;3.52;59.95;98758.55;106686;1253;60359;-77
2024/02/08 13:23:29;;;;;;;4.60;2.60;;;;;;;3.36;60.30;98760.73;108229;1253;73964;-78
2024/02/08 13:25:57;;;;;;;4.90;3.20;;;;;;;3.19;60.06;98762.17;108915;1254;68191;-78
2024/02/08 13:28:26;;;;;;;3.30;2.30;;;;;;;3.03;60.85;98761.30;107590;1253;73791;-76
2024/02/08 13:30:56;;;;;;;4.30;2.30;;;;;;;2.92;61.12;98763.88;106502;1254;61244;-78
2024/02/08 13:33:24;;;;;;;5.10;3.30;;;;;;;2.87;61.34;98766.80;106301;1258;60648;-75
2024/02/08 13:35:52;;;;;;;4.00;2.80;;;;;;;2.81;61.52;98762.47;105958;1254;76185;-77
2024/02/08 13:38:24;;;;;;;6.70;3.20;;;;;;;2.74;61.78;98760.27;105887;1253;72989;-75
2024/02/08 13:40:57;;;;;;;6.10;3.40;;;;;;;2.71;62.50;98758.83;105955;1254;70740;-76
2024/02/08 13:43:30;;;;;;;8.00;4.10;;;;;;;2.68;62.28;98758.56;105832;1259;60571;-75
2024/02/08 13:45:58;;;;;;;6.20;3.40;;;;;;;2.60;62.56;98761.39;105851;1257;60580;-74
2024/02/08 13:48:29;;;;;;;5.00;2.50;;;;;;;2.54;62.92;98758.11;105934;1255;74616;-75
2024/02/08 13:51:05;;;;;;;6.80;2.90;;;;;;;2.46;62.64;98756.36;106039;1254;69388;-74
2024/02/08 13:53:35;;;;;;;4.70;2.70;;;;;;;2.37;62.73;98755.96;105940;1258;73307;-76
2024/02/08 13:56:05;;;;;;;3.70;2.50;;;;;;;2.31;63.13;98759.48;106016;1253;60823;-76
2024/02/08 13:58:36;;;;;;;7.20;3.20;;;;;;;2.26;62.75;98763.13;106033;1253;59657;-75
2024/02/08 14:01:04;;;;;;;5.20;2.90;;;;;;;2.17;62.46;98758.14;106006;1254;72619;-77
2024/02/08 14:03:34;;;;;;;4.70;2.70;;;;;;;2.09;62.25;98759.38;105854;1253;70445;-75
2024/02/08 14:06:08;;;;;;;5.80;3.60;;;;;;;2.08;62.38;98766.44;105860;1257;74201;-77
2024/02/08 14:09:40;;;;;;;7.00;4.40;;;;;;;2.00;63.00;98766.98;105891;1254;60554;-75
2024/02/08 14:12:11;;;;;;;5.80;3.60;;;;;;;1.97;63.43;98765.35;105981;1253;61196;-76
2024/02/08 14:14:41;;;;;;;6.70;4.20;;;;;;;1.96;63.81;98770.13;105886;1252;72274;-75
2024/02/08 14:17:20;;;;;;;6.70;4.20;;;;;;;1.95;64.18;98771.45;105973;1254;70604;-76